createdAt,value
2022-08-17T00:00:06.403Z,138.32177
2022-08-17T00:05:11.209Z,137.71069
2022-08-17T00:10:12.143Z,138.32177
2022-08-17T00:15:13.141Z,138.32177
2022-08-17T00:20:14.058Z,138.32177
2022-08-17T00:25:16.100Z,138.32177
2022-08-17T00:30:17.047Z,138.32177
2022-08-17T00:35:17.986Z,138.32177
2022-08-17T00:40:18.902Z,138.32177
2022-08-17T00:45:19.927Z,138.32177
2022-08-17T00:50:20.845Z,138.32177
2022-08-17T00:55:21.786Z,138.93671
2022-08-17T01:00:22.722Z,138.32177
2022-08-17T01:05:23.637Z,138.93671
2022-08-17T01:11:00.084Z,138.93671
2022-08-17T01:16:02.616Z,138.32177
2022-08-17T01:21:03.697Z,137.71069
2022-08-17T01:26:04.695Z,136.5
2022-08-17T01:31:05.680Z,136.5
2022-08-17T01:36:06.720Z,137.10345
2022-08-17T01:41:07.691Z,138.32177
2022-08-17T01:46:08.870Z,138.93671
2022-08-17T01:51:09.783Z,140.17834
2022-08-17T01:56:10.794Z,140.17834
2022-08-17T02:01:11.770Z,140.80511
2022-08-17T02:06:27.783Z,141.4359
2022-08-17T02:11:29.307Z,142.07074
2022-08-17T02:16:37.395Z,142.07074
2022-08-17T02:21:38.924Z,142.07074
2022-08-17T02:26:39.818Z,142.70968
2022-08-17T02:31:40.727Z,143.35275
2022-08-17T02:36:41.785Z,143.35275
2022-08-17T02:41:42.679Z,143.35275
2022-08-17T02:46:43.705Z,143.35275
2022-08-17T02:51:44.626Z,144.0
2022-08-17T02:56:45.528Z,144.0
2022-08-17T03:01:46.583Z,144.0
2022-08-17T03:06:47.492Z,144.0
2022-08-17T03:11:49.162Z,144.0
2022-08-17T03:16:54.220Z,144.0
2022-08-17T03:21:55.591Z,144.65147
2022-08-17T03:26:56.521Z,144.0
2022-08-17T03:31:57.463Z,144.0
2022-08-17T03:36:58.400Z,144.0
2022-08-17T03:41:59.545Z,144.65147
2022-08-17T03:47:00.579Z,144.65147
2022-08-17T03:52:01.590Z,145.30719
2022-08-17T03:57:02.493Z,145.30719
2022-08-17T04:02:09.320Z,145.96721
2022-08-17T04:07:10.463Z,145.96721
2022-08-17T04:12:11.604Z,145.30719
2022-08-17T04:17:12.718Z,145.30719
2022-08-17T04:22:33.265Z,145.96721
2022-08-17T04:27:34.951Z,145.96721
2022-08-17T04:33:10.824Z,145.96721
2022-08-17T04:38:11.949Z,145.30719
2022-08-17T04:43:12.871Z,145.30719
2022-08-17T04:48:13.815Z,145.30719
2022-08-17T04:53:14.745Z,145.30719
2022-08-17T04:58:15.681Z,145.30719
2022-08-17T05:03:16.593Z,144.65147
2022-08-17T05:08:17.530Z,144.65147
2022-08-17T05:13:18.542Z,144.65147
2022-08-17T05:18:19.479Z,144.65147
2022-08-17T05:23:20.406Z,144.0
2022-08-17T05:28:24.076Z,144.0
2022-08-17T05:33:27.619Z,143.35275
2022-08-17T05:38:29.548Z,142.70968
2022-08-17T05:43:30.569Z,142.70968
2022-08-17T05:48:35.613Z,142.07074
2022-08-17T05:53:41.211Z,142.07074
2022-08-17T05:58:43.952Z,142.07074
2022-08-17T06:03:44.889Z,142.07074
2022-08-17T06:08:45.819Z,141.4359
2022-08-17T06:13:49.202Z,141.4359
2022-08-17T06:23:50.890Z,140.80511
2022-08-17T06:28:51.890Z,140.80511
2022-08-17T06:33:52.833Z,140.80511
2022-08-17T06:38:53.918Z,140.17834
2022-08-17T06:43:54.892Z,140.17834
2022-08-17T06:48:55.833Z,137.10345
2022-08-17T06:53:56.768Z,137.71069
2022-08-17T06:58:58.765Z,138.32177
2022-08-17T07:03:59.671Z,138.93671
2022-08-17T07:09:07.790Z,139.55556
2022-08-17T07:14:08.708Z,139.55556
2022-08-17T07:19:19.867Z,138.93671
2022-08-17T07:24:29.198Z,138.32177
2022-08-17T07:29:31.333Z,137.71069
2022-08-17T07:34:32.239Z,137.10345
2022-08-17T07:39:33.257Z,137.10345
2022-08-17T07:44:34.203Z,137.71069
2022-08-17T07:49:36.571Z,137.10345
2022-08-17T07:54:37.494Z,137.10345
2022-08-17T07:59:38.640Z,135.90031
2022-08-17T08:04:59.661Z,134.12346
2022-08-17T08:10:01.130Z,134.12346
2022-08-17T08:15:02.211Z,138.32177
2022-08-17T08:20:34.865Z,137.71069
2022-08-17T08:25:53.990Z,137.10345
2022-08-17T08:30:55.260Z,135.90031
2022-08-17T08:35:56.211Z,138.32177
2022-08-17T08:40:57.119Z,136.5
2022-08-17T08:45:58.059Z,138.32177
2022-08-17T08:50:59.011Z,137.10345
2022-08-17T08:56:00.735Z,138.32177
2022-08-17T09:01:01.776Z,133.53846
2022-08-17T09:06:02.796Z,134.12346
2022-08-17T09:11:03.716Z,133.53846
2022-08-17T09:16:04.678Z,134.12346
2022-08-17T09:21:05.597Z,132.3792
2022-08-17T09:26:06.856Z,137.10345
2022-08-17T09:31:07.807Z,135.30435
2022-08-17T09:36:08.778Z,133.53846
2022-08-17T09:41:09.729Z,136.5
2022-08-17T09:46:10.667Z,134.12346
2022-08-17T09:51:11.629Z,126.24852
2022-08-17T09:56:12.610Z,124.11696
2022-08-17T10:01:13.537Z,123.06977
2022-08-17T10:06:14.505Z,123.06977
2022-08-17T10:11:15.449Z,125.17647
2022-08-17T10:16:21.771Z,125.71091
2022-08-17T10:21:22.688Z,126.78932
2022-08-17T10:26:23.659Z,131.80488
2022-08-17T10:31:35.397Z,129.54217
2022-08-17T10:36:37.009Z,127.8806
2022-08-17T10:41:40.421Z,128.43114
2022-08-17T10:46:41.608Z,127.33333
2022-08-17T10:51:42.548Z,128.98498
2022-08-17T10:56:43.514Z,126.78932
2022-08-17T11:01:44.418Z,126.78932
2022-08-17T11:06:45.349Z,127.8806
2022-08-17T11:11:46.252Z,130.10272
2022-08-17T11:16:47.162Z,130.66667
2022-08-17T11:21:48.084Z,131.23404
2022-08-17T11:26:49.500Z,128.43114
2022-08-17T11:31:50.440Z,127.33333
2022-08-17T11:36:55.101Z,127.33333
2022-08-17T11:41:56.068Z,128.43114
2022-08-17T11:46:57.068Z,127.8806
2022-08-17T11:51:57.983Z,128.98498
2022-08-17T11:56:59.522Z,126.24852
2022-08-17T12:02:00.441Z,125.17647
2022-08-17T12:07:01.424Z,131.23404
2022-08-17T12:12:12.595Z,128.43114
2022-08-17T12:22:15.465Z,127.8806
2022-08-17T12:27:16.515Z,126.78932
2022-08-17T12:32:48.669Z,124.64516
2022-08-17T12:37:50.275Z,119.0
2022-08-17T12:42:51.365Z,123.06977
2022-08-17T12:47:52.569Z,123.06977
2022-08-17T12:52:53.603Z,123.59184
2022-08-17T12:58:02.020Z,124.11696
2022-08-17T13:03:03.286Z,123.06977
2022-08-17T13:13:04.662Z,123.06977
2022-08-17T13:18:05.596Z,121.01149
2022-08-17T13:23:12.563Z,124.64516
2022-08-17T13:28:13.859Z,122.55072
2022-08-17T13:33:14.794Z,126.78932
2022-08-17T13:38:18.551Z,124.11696
2022-08-17T13:43:19.449Z,123.06977
2022-08-17T13:48:20.382Z,125.71091
2022-08-17T13:53:21.325Z,123.59184
2022-08-17T13:58:22.249Z,121.01149
2022-08-17T14:03:23.133Z,122.55072
2022-08-17T14:08:24.066Z,121.01149
2022-08-17T14:13:24.977Z,122.03468
2022-08-17T14:18:37.532Z,122.03468
2022-08-17T14:23:57.486Z,125.17647
2022-08-17T14:34:04.142Z,124.11696
2022-08-17T14:39:05.152Z,122.55072
2022-08-17T14:44:06.120Z,123.06977
2022-08-17T14:49:07.529Z,122.03468
2022-08-17T14:54:09.342Z,124.11696
2022-08-17T14:59:10.278Z,122.55072
2022-08-17T15:04:11.199Z,124.11696
2022-08-17T15:09:12.119Z,123.59184
2022-08-17T15:14:12.981Z,123.06977
2022-08-17T15:19:13.870Z,122.03468
2022-08-17T15:29:15.234Z,123.59184
2022-08-17T15:34:16.242Z,122.55072
2022-08-17T15:39:19.608Z,121.52161
2022-08-17T15:44:21.169Z,121.52161
2022-08-17T15:49:31.372Z,121.52161
2022-08-17T15:54:34.597Z,121.01149
2022-08-17T15:59:36.968Z,122.55072
2022-08-17T16:04:40.223Z,122.03468
2022-08-17T16:09:45.117Z,125.71091
2022-08-17T16:14:46.053Z,124.11696
2022-08-17T16:19:46.984Z,125.17647
2022-08-17T16:24:56.868Z,124.64516
2022-08-17T16:29:58.564Z,124.64516
2022-08-17T16:34:59.518Z,125.17647
2022-08-17T16:40:00.774Z,127.33333
2022-08-17T16:45:01.750Z,127.8806
2022-08-17T16:50:02.678Z,128.98498
2022-08-17T16:55:03.613Z,129.54217
2022-08-17T17:00:04.633Z,127.33333
2022-08-17T17:05:05.707Z,127.33333
2022-08-17T17:10:06.654Z,126.78932
2022-08-17T17:15:07.974Z,127.33333
2022-08-17T17:20:09.022Z,126.78932
2022-08-17T17:25:09.938Z,126.78932
2022-08-17T17:30:15.950Z,127.8806
2022-08-17T17:35:16.916Z,127.8806
2022-08-17T17:40:17.966Z,128.43114
2022-08-17T17:45:18.975Z,128.98498
2022-08-17T17:50:19.887Z,129.54217
2022-08-17T17:55:20.781Z,129.54217
2022-08-17T18:00:21.745Z,130.10272
2022-08-17T18:05:22.694Z,130.10272
2022-08-17T18:10:30.057Z,130.66667
2022-08-17T18:15:31.657Z,131.23404
2022-08-17T18:20:43.464Z,131.23404
2022-08-17T18:27:43.252Z,124.64516
2022-08-17T18:32:44.161Z,136.5
2022-08-17T18:37:45.242Z,137.71069
2022-08-17T18:42:46.295Z,138.32177
2022-08-17T18:47:47.363Z,138.93671
2022-08-17T18:52:48.372Z,138.93671
2022-08-17T18:57:49.601Z,139.55556
2022-08-17T19:02:50.697Z,140.17834
2022-08-17T19:07:51.992Z,140.17834
2022-08-17T19:12:53.165Z,140.17834
2022-08-17T19:17:54.953Z,140.80511
2022-08-17T19:22:55.986Z,140.80511
2022-08-17T19:27:57.895Z,140.80511
2022-08-17T19:32:59.053Z,140.80511
2022-08-17T19:37:59.994Z,141.4359
2022-08-17T19:43:00.897Z,141.4359
2022-08-17T19:48:03.338Z,141.4359
2022-08-17T19:53:04.422Z,142.07074
2022-08-17T19:58:05.395Z,142.07074
2022-08-17T20:03:06.605Z,142.70968
2022-08-17T20:08:07.838Z,142.70968
2022-08-17T20:13:08.808Z,143.35275
2022-08-17T20:18:09.802Z,143.35275
2022-08-17T20:23:10.834Z,144.0
2022-08-17T20:28:11.714Z,144.0
2022-08-17T20:33:13.316Z,144.0
2022-08-17T20:38:14.655Z,144.0
2022-08-17T20:43:15.607Z,144.0
2022-08-17T20:48:36.309Z,144.0
2022-08-17T20:53:38.752Z,144.0
2022-08-17T20:58:39.699Z,144.0
2022-08-17T21:03:50.273Z,144.65147
2022-08-17T21:08:52.607Z,144.65147
2022-08-17T21:13:53.627Z,144.65147
2022-08-17T21:18:54.495Z,144.65147
2022-08-17T21:23:55.396Z,144.65147
2022-08-17T21:29:00.604Z,145.30719
2022-08-17T21:34:02.648Z,145.30719
2022-08-17T21:39:03.636Z,145.30719
2022-08-17T21:44:04.590Z,145.30719
2022-08-17T21:49:10.864Z,145.30719
2022-08-17T21:54:14.991Z,145.30719
2022-08-17T21:59:15.954Z,145.96721
2022-08-17T22:04:16.852Z,145.96721
2022-08-17T22:09:17.793Z,145.96721
2022-08-17T22:14:18.712Z,145.96721
2022-08-17T22:19:21.841Z,145.96721
2022-08-17T22:24:22.761Z,146.63158
2022-08-17T22:29:23.643Z,146.63158
2022-08-17T22:34:24.579Z,146.63158
2022-08-17T22:39:25.702Z,146.63158
2022-08-17T22:44:26.621Z,147.30033
2022-08-17T22:49:27.554Z,146.63158
2022-08-17T22:54:28.451Z,146.63158
2022-08-17T22:59:29.345Z,146.63158
2022-08-17T23:04:30.267Z,147.30033
2022-08-17T23:09:31.186Z,147.30033
2022-08-17T23:14:32.135Z,147.30033
2022-08-17T23:19:33.028Z,147.30033
2022-08-17T23:24:33.905Z,147.30033
2022-08-17T23:29:34.779Z,147.30033
2022-08-17T23:34:35.937Z,147.30033
2022-08-17T23:39:36.910Z,147.30033
2022-08-17T23:44:37.821Z,147.97351
2022-08-17T23:49:38.748Z,147.30033
2022-08-17T23:54:39.695Z,147.30033
2022-08-17T23:59:40.568Z,147.30033
